Harrisville, MI (48740)

4:06 PM EDT on August 04, 2015 (GMT -0400)
KMIOSCOD3 | | Change Station
CLOSE
Current Station
Personal Weather Station
Location: On the Beach , North of Oscoda, MI
Elevation: 582 ft
Nearby Weather Stations

Elev 582 ft 44.51 °N, 83.32 °W | Updated 2 seconds ago

Overcast
Overcast
82.9 °F
Feels Like 86 °F
N
0.0
Wind Variable Wind from WSW
Gusts 0.0 mph

Today
High -- | Low -- °F
--% Chance of Precip.
Yesterday
High -- | Low -- °F
Precip. -- in
6:22 AM 8:55 PM
Waning Gibbous, 75% visible
Pressure 29.89 in
Visibility 10.0 miles
Clouds Scattered Clouds 3100 ft
Mostly Cloudy 5500 ft
Overcast 10000 ft
Heat Index 86 °F
Dew Point 67 °F
Humidity 59%
Rainfall 0.00 in
Snow Depth Not available.
UV 2 out of 12
Pollen 6.30 out of 12
Air Quality Not available.
Flu Activity Not available.
METAR KOSC 041953Z AUTO 30003KT 10SM -RA SCT031 BKN055 OVC100 18/15 A2989 RMK AO2 P0014 T01870153

More Conditions Fewer Conditions

Pressure 29.89 in
Visibility 10.0 miles
Clouds Scattered Clouds 3100 ft
Mostly Cloudy 5500 ft
Overcast 10000 ft
Heat Index 86 °F
Dew Point 67 °F
Humidity 59%
Rainfall 0.00 in
Snow Depth Not available.
UV 2 out of 12
Pollen 6.30 out of 12
Air Quality Not available.
Flu Activity Not available.
METAR KOSC 041953Z AUTO 30003KT 10SM -RA SCT031 BKN055 OVC100 18/15 A2989 RMK AO2 P0014 T01870153

More Conditions Fewer Conditions

Nowcast | as of 4:00 PM EDT on August 4, 2015

At 5 PM...partly cloudy. Chance of showers. Temperature 68. Northwest winds 7 mph. At 7 PM...partly cloudy. Chance of showers. Temperature 66. Northwest winds 6 mph. At 9 PM...partly cloudy. Temperature 63. Northwest winds 7 mph. At 11 PM...mostly clear. Temperature 57. Northwest winds 10 mph.

×

10-Day Weather Forecast

×

Almanac

Astronomy

Aug. 04, 2015 Rise Set
Actual Time
Civil Twilight
Nautical Twilight
Astronomical Twilight
Moon
Length of Visible Light
Length of Day
Tomorrow will be .
, % of the Moon is Illuminated

Today's Extremes

State Highs State Lows

Community

WunderPhotos

Upload Photos

1,843,962 photos uploaded!

WunderBlogs® & News

Nearby

Air Quality

  Air Quality AQ Index Pollutant
Not available.

Snow Depth

Station Depth Elevation

Earthquake Activity

City Distance Mag. Time & Date
Minimum magnitude displayed is 2.5.

Coastal Water Temperatures

Place Temperature

Stations

Nearby Weather Stations

Station Location Temp. Windchill Dew Point Humidity Wind Precip. Elev Updated Type